Aérodrome :
LOGIN :

S'inscrire | Disclaimer

   EN    FR    IT 

 










Légende :    VFR   VFR Marginal   IFR   IFR Intensif   IFR Très Intensif
Visi : 
Plafond : 
>= 8 km
>= 3000ft
5 à 8 km
1000 à 3000 ft
1500m à 5 km
500 à 1000 ft
800 à 1500m
200 à 500 ft
< 800m
< 200 ft
Symboles :   Orages  Brouillard  Fortes neiges  Fortes précipitations  Vent > 20 kt
SIGMETs :   Divers  Orages  Givrage  Turbulence  Onde Orograph.  Cendres Volcan.






- Altitude de l'aérodrome : 78 ft
- Code IATA : LED


ULLI - Pulkovo

DERNIER METAR :
  • 091800Z 29003MPS 9999 FEW026CB SCT040 03/M02 Q1007 R28R/090060 NOSIG

METARs EXPIRÉS :
  • 091730Z 27003MPS 9999 FEW026CB SCT040 04/M01 Q1007 R28R/090060 NOSIG
  • 091700Z 33003MPS 9999 FEW026CB SCT040 05/M01 Q1006 R28R/090060 NOSIG
  • 091630Z 34003MPS 9999 FEW040 06/M01 Q1006 R28R/090060 NOSIG
  • 091600Z 30005MPS 9999 SCT040 07/M02 Q1006 R28R/090060 NOSIG
  • 091530Z 29007MPS 260V320 9999 SCT040 08/M03 Q1006 R28R/090060 NOSIG

TAF TAF ULLI
Valide du 09 à 18h jusqu'au 10 à 18h UTC


091659Z 0918/1018 32003MPS 9999 BKN013 BKN030
TEMPO 0918/0921 33004G09MPS 3100 -SHRA BKN011 BKN015CB
TEMPO 0921/1006 3100 -SHSNRA BR BKN011 BKN016CB
TEMPO 1006/1012 31006MPS



MET'MAP, la Météo Aéronautique d'un coup d'oeil ! - Copyright ORBIFLY Décembre 2007 - Disclaimer

ORBIFLY MET'MAP TEAM :

Programmation & Développement : Alexandra Zaïnal
Sur une idée originale de : Baudouin d'Aumeries
Assistance à la programmation : Marc-Olivier Méhu
Soutien technique & logistique : Manuel Goepfert

Contact : metmap@orbifly.com




SOURCES & CREDITS :

   NOAA